createdAt,value
2018-06-10T00:01:44.764Z,16.67
2018-06-10T00:04:20.704Z,16.58
2018-06-10T00:06:56.316Z,16.61
2018-06-10T00:09:31.886Z,16.68
2018-06-10T00:12:07.616Z,16.55
2018-06-10T00:14:43.106Z,16.63
2018-06-10T00:17:18.535Z,16.61
2018-06-10T00:19:55.254Z,16.57
2018-06-10T00:22:32.255Z,16.61
2018-06-10T00:25:09.500Z,16.51
2018-06-10T00:27:46.158Z,16.49
2018-06-10T00:30:23.711Z,16.44
2018-06-10T00:33:00.824Z,16.39
2018-06-10T00:35:37.418Z,16.37
2018-06-10T00:38:13.878Z,16.31
2018-06-10T00:40:50.160Z,16.36
2018-06-10T00:43:25.658Z,16.45
2018-06-10T00:46:01.168Z,16.41
2018-06-10T00:48:36.632Z,16.41
2018-06-10T00:51:12.058Z,16.30
2018-06-10T00:53:47.573Z,16.25
2018-06-10T00:56:57.751Z,16.12
2018-06-10T00:59:34.315Z,16.21
2018-06-10T01:02:10.008Z,16.15
2018-06-10T01:04:45.549Z,16.13
2018-06-10T01:07:21.087Z,16.21
2018-06-10T01:09:56.537Z,16.10
2018-06-10T01:12:32.131Z,16.15
2018-06-10T01:15:08.451Z,16.21
2018-06-10T01:17:44.083Z,16.18
2018-06-10T01:20:19.469Z,16.26
2018-06-10T01:22:55.128Z,16.27
2018-06-10T01:25:30.698Z,16.15
2018-06-10T01:28:06.183Z,16.17
2018-06-10T01:30:41.524Z,16.15
2018-06-10T01:33:17.047Z,16.13
2018-06-10T01:35:52.459Z,16.18
2018-06-10T01:38:28.033Z,16.08
2018-06-10T01:41:03.669Z,16.03
2018-06-10T01:43:39.344Z,15.96
2018-06-10T01:46:14.959Z,15.93
2018-06-10T01:48:50.424Z,15.90
2018-06-10T01:51:25.976Z,15.85
2018-06-10T01:54:01.403Z,15.88
2018-06-10T01:56:36.840Z,15.96
2018-06-10T01:59:12.163Z,16.05
2018-06-10T02:01:49.198Z,16.08
2018-06-10T02:04:26.698Z,15.92
2018-06-10T02:07:02.674Z,15.97
2018-06-10T02:09:38.264Z,15.91
2018-06-10T02:12:13.672Z,15.79
2018-06-10T02:14:49.189Z,15.63
2018-06-10T02:17:24.616Z,15.55
2018-06-10T02:20:00.121Z,15.48
2018-06-10T02:22:35.714Z,15.45
2018-06-10T02:25:11.055Z,15.46
2018-06-10T02:27:46.487Z,15.41
2018-06-10T02:30:22.109Z,15.39
2018-06-10T02:32:57.869Z,15.40
2018-06-10T02:35:33.729Z,15.67
2018-06-10T02:38:09.247Z,15.69
2018-06-10T02:40:44.857Z,15.60
2018-06-10T02:43:20.465Z,15.63
2018-06-10T02:45:55.959Z,15.63
2018-06-10T02:48:31.798Z,15.69
2018-06-10T02:51:07.257Z,15.59
2018-06-10T02:53:42.835Z,15.59
2018-06-10T02:56:18.597Z,15.54
2018-06-10T02:58:54.143Z,15.53
2018-06-10T03:01:29.697Z,15.83
2018-06-10T03:04:05.244Z,15.86
2018-06-10T03:06:40.635Z,15.82
2018-06-10T03:09:16.201Z,15.81
2018-06-10T03:11:51.579Z,15.82
2018-06-10T03:14:27.031Z,15.79
2018-06-10T03:17:02.743Z,15.83
2018-06-10T03:19:38.044Z,16.07
2018-06-10T03:22:13.494Z,16.11
2018-06-10T03:24:48.968Z,15.91
2018-06-10T03:27:24.376Z,16.00
2018-06-10T03:29:59.673Z,16.03
2018-06-10T03:32:35.318Z,15.94
2018-06-10T03:35:10.881Z,15.94
2018-06-10T03:37:46.895Z,15.93
2018-06-10T03:40:22.545Z,15.94
2018-06-10T03:42:58.344Z,16.00
2018-06-10T03:45:34.098Z,16.05
2018-06-10T03:48:09.743Z,16.05
2018-06-10T03:50:45.192Z,16.12
2018-06-10T03:53:20.584Z,16.12
2018-06-10T03:55:56.196Z,16.16
2018-06-10T03:58:32.012Z,16.18
2018-06-10T04:01:07.599Z,16.26
2018-06-10T04:03:43.090Z,16.23
2018-06-10T04:06:18.607Z,16.29
2018-06-10T04:08:53.895Z,16.31
2018-06-10T04:11:29.292Z,16.35
2018-06-10T04:14:04.638Z,16.45
2018-06-10T04:16:40.033Z,16.47
2018-06-10T04:19:15.600Z,16.42
2018-06-10T04:21:51.008Z,16.30
2018-06-10T04:24:26.644Z,16.34
2018-06-10T04:27:02.215Z,16.25
2018-06-10T04:29:37.622Z,16.23
2018-06-10T04:32:13.452Z,16.26
2018-06-10T04:34:49.733Z,16.30
2018-06-10T04:37:25.370Z,16.33
2018-06-10T04:40:00.938Z,16.45
2018-06-10T04:42:36.439Z,16.54
2018-06-10T04:45:12.206Z,16.59
2018-06-10T04:47:47.684Z,16.69
2018-06-10T04:50:23.233Z,16.94
2018-06-10T04:52:58.834Z,17.06
2018-06-10T04:55:34.302Z,17.40
2018-06-10T04:58:09.839Z,17.79
2018-06-10T05:00:45.472Z,18.10
2018-06-10T05:03:21.184Z,18.36
2018-06-10T05:05:56.792Z,18.33
2018-06-10T05:08:32.682Z,18.73
2018-06-10T05:11:08.548Z,18.94
2018-06-10T05:13:43.885Z,18.98
2018-06-10T05:16:19.294Z,18.70
2018-06-10T05:18:54.835Z,18.69
2018-06-10T05:21:30.576Z,18.89
2018-06-10T05:24:06.795Z,18.89
2018-06-10T05:26:42.756Z,18.83
2018-06-10T05:29:23.892Z,18.65
2018-06-10T05:31:59.613Z,18.45
2018-06-10T05:34:35.422Z,18.43
2018-06-10T05:37:11.052Z,18.58
2018-06-10T05:39:46.739Z,18.50
2018-06-10T05:42:22.268Z,18.49
2018-06-10T05:44:58.323Z,18.95
2018-06-10T05:47:33.940Z,18.99
2018-06-10T05:50:09.438Z,19.22
2018-06-10T05:52:45.213Z,19.01
2018-06-10T05:55:20.678Z,18.97
2018-06-10T05:57:56.492Z,19.30
2018-06-10T06:00:32.221Z,19.36
2018-06-10T06:03:07.806Z,19.61
2018-06-10T06:05:43.400Z,19.88
2018-06-10T06:08:18.897Z,20.16
2018-06-10T06:10:54.635Z,20.56
2018-06-10T06:13:29.950Z,20.50
2018-06-10T06:16:05.514Z,20.80
2018-06-10T06:18:41.164Z,20.87
2018-06-10T06:21:16.656Z,20.86
2018-06-10T06:23:52.484Z,21.12
2018-06-10T06:26:28.188Z,21.49
2018-06-10T06:29:03.473Z,22.10
2018-06-10T06:31:39.227Z,21.94
2018-06-10T06:34:15.021Z,22.42
2018-06-10T06:36:50.891Z,22.56
2018-06-10T06:39:26.752Z,22.76
2018-06-10T06:42:02.563Z,22.99
2018-06-10T06:44:38.463Z,23.00
2018-06-10T06:47:14.341Z,22.80
2018-06-10T06:49:51.324Z,23.13
2018-06-10T06:52:29.916Z,23.05
2018-06-10T06:55:07.341Z,22.99
2018-06-10T06:57:44.425Z,23.41
2018-06-10T07:00:20.781Z,23.34
2018-06-10T07:02:58.176Z,24.12
2018-06-10T07:05:34.985Z,24.85
2018-06-10T07:08:10.753Z,25.41
2018-06-10T07:10:46.797Z,25.31
2018-06-10T07:13:22.929Z,25.32
2018-06-10T07:15:59.900Z,25.28
2018-06-10T07:18:36.388Z,26.01
2018-06-10T07:21:13.098Z,26.71
2018-06-10T07:23:49.929Z,27.09
2018-06-10T07:26:26.371Z,26.81
2018-06-10T07:29:05.138Z,27.31
2018-06-10T07:31:42.923Z,27.17
2018-06-10T07:34:19.576Z,27.64
2018-06-10T07:36:55.716Z,28.33
2018-06-10T07:39:34.155Z,27.54
2018-06-10T07:42:11.861Z,27.70
2018-06-10T07:44:50.248Z,27.25
2018-06-10T07:47:27.408Z,27.64
2018-06-10T07:50:08.531Z,27.73
2018-06-10T07:52:44.206Z,28.22
2018-06-10T07:55:19.708Z,28.34
2018-06-10T07:57:55.168Z,28.12
2018-06-10T08:00:30.967Z,27.52
2018-06-10T08:03:06.560Z,26.82
2018-06-10T08:05:42.395Z,26.58
2018-06-10T08:08:18.752Z,26.94
2018-06-10T08:10:54.782Z,27.88
2018-06-10T08:13:30.388Z,28.94
2018-06-10T08:16:05.829Z,28.46
2018-06-10T08:18:41.746Z,28.39
2018-06-10T08:21:17.232Z,29.29
2018-06-10T08:23:56.585Z,30.28
2018-06-10T08:26:32.972Z,29.05
2018-06-10T08:29:08.925Z,29.38
2018-06-10T08:31:47.646Z,29.90
2018-06-10T08:34:23.606Z,30.44
2018-06-10T08:36:59.302Z,30.84
2018-06-10T08:39:34.984Z,30.30
2018-06-10T08:42:10.355Z,30.73
2018-06-10T08:44:45.918Z,31.01
2018-06-10T08:47:21.416Z,30.26
2018-06-10T08:49:57.414Z,30.80
2018-06-10T08:52:33.220Z,31.52
2018-06-10T08:55:11.247Z,32.35
2018-06-10T08:57:47.507Z,30.31
2018-06-10T09:00:23.018Z,30.95
2018-06-10T09:03:06.528Z,29.96
2018-06-10T09:05:42.448Z,30.64
2018-06-10T09:08:18.576Z,31.92
2018-06-10T09:10:56.346Z,31.91
2018-06-10T09:13:38.651Z,31.24
2018-06-10T09:16:22.614Z,31.87
2018-06-10T09:18:59.546Z,32.54
2018-06-10T09:21:36.003Z,32.21
2018-06-10T09:24:12.451Z,32.22
2018-06-10T09:26:48.598Z,31.83
2018-06-10T09:29:25.376Z,31.35
2018-06-10T09:32:08.288Z,31.79
2018-06-10T09:34:44.645Z,32.51
2018-06-10T09:37:20.624Z,31.09
2018-06-10T09:39:56.300Z,29.56
2018-06-10T09:42:32.220Z,28.78
2018-06-10T09:45:11.014Z,29.38
2018-06-10T09:47:55.364Z,30.25
2018-06-10T09:50:36.166Z,31.89
2018-06-10T09:53:11.812Z,32.63
2018-06-10T09:55:47.508Z,33.64
2018-06-10T09:58:25.530Z,32.36
2018-06-10T10:01:01.528Z,32.79
2018-06-10T10:03:37.096Z,33.48
2018-06-10T10:06:13.210Z,32.54
2018-06-10T10:08:50.659Z,31.65
2018-06-10T10:11:27.162Z,32.36
2018-06-10T10:14:02.548Z,34.05
2018-06-10T10:16:38.197Z,33.71
2018-06-10T10:19:13.798Z,33.29
2018-06-10T10:21:51.044Z,33.62
2018-06-10T10:24:26.542Z,32.67
2018-06-10T10:27:02.216Z,32.86
2018-06-10T10:29:37.919Z,33.22
2018-06-10T10:32:13.616Z,34.65
2018-06-10T10:34:49.329Z,35.66
2018-06-10T10:37:25.303Z,35.52
2018-06-10T10:40:01.398Z,35.85
2018-06-10T10:42:39.729Z,34.35
2018-06-10T10:45:19.060Z,34.56
2018-06-10T10:47:54.688Z,35.92
2018-06-10T10:50:30.088Z,34.81
2018-06-10T10:53:05.619Z,33.79
2018-06-10T10:55:41.384Z,34.27
2018-06-10T10:58:17.394Z,34.50
2018-06-10T11:00:53.212Z,35.27
2018-06-10T11:03:29.213Z,34.94
2018-06-10T11:06:05.350Z,34.52
2018-06-10T11:08:41.420Z,35.78
2018-06-10T11:11:17.387Z,37.63
2018-06-10T11:13:53.225Z,35.54
2018-06-10T11:16:30.103Z,35.20
2018-06-10T11:19:09.299Z,36.58
2018-06-10T11:21:44.852Z,36.73
2018-06-10T11:24:20.968Z,35.47
2018-06-10T11:26:57.220Z,36.95
2018-06-10T11:29:32.810Z,38.55
2018-06-10T11:32:09.427Z,37.99
2018-06-10T11:34:47.457Z,38.74
2018-06-10T11:37:25.426Z,37.74
2018-06-10T11:40:02.389Z,38.16
2018-06-10T11:42:39.369Z,37.89
2018-06-10T11:45:18.316Z,38.93
2018-06-10T11:47:57.218Z,36.96
2018-06-10T11:50:34.924Z,36.70
2018-06-10T11:53:12.546Z,38.14
2018-06-10T11:55:51.898Z,35.60
2018-06-10T11:58:29.526Z,31.60
2018-06-10T12:01:06.947Z,34.61
2018-06-10T12:03:44.299Z,36.76
2018-06-10T12:06:19.946Z,35.00
2018-06-10T12:08:55.525Z,33.75
2018-06-10T12:11:31.410Z,31.34
2018-06-10T12:14:07.010Z,32.41
2018-06-10T12:16:43.242Z,35.62
2018-06-10T12:19:19.439Z,35.99
2018-06-10T12:21:55.197Z,37.31
2018-06-10T12:24:31.145Z,37.84
2018-06-10T12:27:06.729Z,37.24
2018-06-10T12:29:42.946Z,38.80
2018-06-10T12:32:18.495Z,38.22
2018-06-10T12:34:54.117Z,37.31
2018-06-10T12:37:29.841Z,38.15
2018-06-10T12:40:06.221Z,39.14
2018-06-10T12:42:42.597Z,38.80
2018-06-10T12:45:18.351Z,39.36
2018-06-10T12:47:54.239Z,39.92
2018-06-10T12:50:32.339Z,39.00
2018-06-10T12:53:08.255Z,40.02
2018-06-10T12:55:43.973Z,42.57
2018-06-10T12:58:19.500Z,42.96
2018-06-10T13:00:55.466Z,41.24
2018-06-10T13:03:31.395Z,38.94
2018-06-10T13:06:07.993Z,38.28
2018-06-10T13:08:44.284Z,39.64
2018-06-10T13:11:20.826Z,41.98
2018-06-10T13:13:59.214Z,44.08
2018-06-10T13:16:35.288Z,43.15
2018-06-10T13:19:12.152Z,39.96
2018-06-10T13:21:48.177Z,38.95
2018-06-10T13:24:23.984Z,37.39
2018-06-10T13:27:00.538Z,39.33
2018-06-10T13:29:36.222Z,39.90
2018-06-10T13:32:12.460Z,36.57
2018-06-10T13:34:48.700Z,33.20
2018-06-10T13:37:25.306Z,35.18
2018-06-10T13:40:02.419Z,39.05
2018-06-10T13:42:41.202Z,41.36
2018-06-10T13:45:20.258Z,42.88
2018-06-10T13:47:56.526Z,42.92
2018-06-10T13:50:33.584Z,35.37
2018-06-10T13:53:10.500Z,33.46
2018-06-10T13:55:48.399Z,36.41
2018-06-10T13:58:28.327Z,37.18
2018-06-10T14:01:05.192Z,39.90
2018-06-10T14:03:43.323Z,34.30
2018-06-10T14:06:21.351Z,33.61
2018-06-10T14:09:02.176Z,35.17
2018-06-10T14:11:40.304Z,37.05
2018-06-10T14:14:21.062Z,39.73
2018-06-10T14:17:02.219Z,40.06
2018-06-10T14:19:39.374Z,40.37
2018-06-10T14:22:20.492Z,40.37
2018-06-10T14:24:57.016Z,39.82
2018-06-10T14:27:36.372Z,40.79
2018-06-10T14:30:15.548Z,40.91
2018-06-10T14:32:54.858Z,38.18
2018-06-10T14:35:30.527Z,37.57
2018-06-10T14:38:06.926Z,35.14
2018-06-10T14:40:42.492Z,33.19
2018-06-10T14:43:18.545Z,31.68
2018-06-10T14:45:54.591Z,32.46
2018-06-10T14:48:30.831Z,37.77
2018-06-10T14:51:11.047Z,38.58
2018-06-10T14:53:52.113Z,37.58
2018-06-10T14:56:36.869Z,37.81
2018-06-10T14:59:19.340Z,37.77
2018-06-10T15:02:04.620Z,36.32
2018-06-10T15:04:42.877Z,38.21
2018-06-10T15:07:20.401Z,39.50
2018-06-10T15:09:58.365Z,37.54
2018-06-10T15:12:35.611Z,32.41
2018-06-10T15:15:11.871Z,32.35
2018-06-10T15:17:48.063Z,34.88
2018-06-10T15:20:26.359Z,35.05
2018-06-10T15:23:04.144Z,34.50
2018-06-10T15:25:41.509Z,36.10
2018-06-10T15:28:20.191Z,36.31
2018-06-10T15:30:57.549Z,33.07
2018-06-10T15:33:35.047Z,33.28
2018-06-10T15:36:12.683Z,33.74
2018-06-10T15:38:53.887Z,30.76
2018-06-10T15:41:35.531Z,31.39
2018-06-10T15:44:13.951Z,34.72
2018-06-10T15:47:04.391Z,37.57
2018-06-10T15:49:46.125Z,38.25
2018-06-10T15:52:34.064Z,37.64
2018-06-10T15:55:16.332Z,34.97
2018-06-10T15:57:57.430Z,32.03
2018-06-10T16:00:36.748Z,31.00
2018-06-10T16:03:15.522Z,32.35
2018-06-10T16:05:53.212Z,32.78
2018-06-10T16:08:33.823Z,35.29
2018-06-10T16:11:17.556Z,36.15
2018-06-10T16:13:53.433Z,36.16
2018-06-10T16:16:31.126Z,35.64
2018-06-10T16:19:08.177Z,33.99
2018-06-10T16:21:46.173Z,34.63
2018-06-10T16:24:26.654Z,36.07
2018-06-10T16:27:06.142Z,35.68
2018-06-10T16:29:43.028Z,36.03
2018-06-10T16:32:20.950Z,35.33
2018-06-10T16:34:58.663Z,37.06
2018-06-10T16:37:36.198Z,36.13
2018-06-10T16:40:15.126Z,34.70
2018-06-10T16:43:16.191Z,34.50
2018-06-10T16:45:54.224Z,33.86
2018-06-10T16:48:32.087Z,32.93
2018-06-10T16:51:10.567Z,33.84
2018-06-10T16:53:53.774Z,33.52
2018-06-10T16:56:32.484Z,33.98
2018-06-10T16:59:11.968Z,33.06
2018-06-10T17:01:49.791Z,33.43
2018-06-10T17:04:25.996Z,33.04
2018-06-10T17:07:01.946Z,32.13
2018-06-10T17:09:40.036Z,31.87
2018-06-10T17:12:15.632Z,31.16
2018-06-10T17:14:51.718Z,30.89
2018-06-10T17:17:27.776Z,30.25
2018-06-10T17:20:04.338Z,29.90
2018-06-10T17:22:39.813Z,29.35
2018-06-10T17:25:15.950Z,29.09
2018-06-10T17:27:51.540Z,28.99
2018-06-10T17:30:28.807Z,28.73
2018-06-10T17:33:05.954Z,28.38
2018-06-10T17:35:46.149Z,28.34
2018-06-10T17:38:21.615Z,28.33
2018-06-10T17:40:57.853Z,28.18
2018-06-10T17:43:36.531Z,28.26
2018-06-10T17:46:12.891Z,28.43
2018-06-10T17:48:49.485Z,28.39
2018-06-10T17:51:29.637Z,28.60
2018-06-10T17:54:17.481Z,28.63
2018-06-10T17:57:08.275Z,28.65
2018-06-10T17:59:52.436Z,28.43
2018-06-10T18:02:41.627Z,28.27
2018-06-10T18:05:20.729Z,28.30
2018-06-10T18:07:56.857Z,28.21
2018-06-10T18:10:36.138Z,28.01
2018-06-10T18:13:15.919Z,27.59
2018-06-10T18:15:53.869Z,27.40
2018-06-10T18:18:31.915Z,27.51
2018-06-10T18:21:16.589Z,27.50
2018-06-10T18:24:30.523Z,27.34
2018-06-10T18:27:15.580Z,27.06
2018-06-10T18:29:55.236Z,26.75
2018-06-10T18:32:35.065Z,26.52
2018-06-10T18:35:12.055Z,26.31
2018-06-10T18:37:48.547Z,26.12
2018-06-10T18:40:27.662Z,25.96
2018-06-10T18:43:06.417Z,25.76
2018-06-10T18:45:48.354Z,25.60
2018-06-10T18:48:24.447Z,25.44
2018-06-10T18:51:00.835Z,25.38
2018-06-10T18:53:36.716Z,25.27
2018-06-10T18:56:12.447Z,25.22
2018-06-10T18:58:48.400Z,25.08
2018-06-10T19:01:24.852Z,24.96
2018-06-10T19:04:00.917Z,24.86
2018-06-10T19:06:37.567Z,24.78
2018-06-10T19:09:14.120Z,24.75
2018-06-10T19:11:49.762Z,24.64
2018-06-10T19:14:25.602Z,24.63
2018-06-10T19:17:02.192Z,24.58
2018-06-10T19:19:39.340Z,24.56
2018-06-10T19:22:15.447Z,24.41
2018-06-10T19:24:51.921Z,24.33
2018-06-10T19:27:28.165Z,24.19
2018-06-10T19:30:03.633Z,24.08
2018-06-10T19:32:39.101Z,23.91
2018-06-10T19:35:14.532Z,23.76
2018-06-10T19:37:50.071Z,23.72
2018-06-10T19:40:25.728Z,23.76
2018-06-10T19:43:01.827Z,23.73
2018-06-10T19:45:37.850Z,23.71
2018-06-10T19:48:14.052Z,23.65
2018-06-10T19:50:50.683Z,23.55
2018-06-10T19:53:26.178Z,23.37
2018-06-10T19:56:01.954Z,23.35
2018-06-10T19:58:38.850Z,23.31
2018-06-10T20:01:15.189Z,23.10
2018-06-10T20:03:50.989Z,22.91
2018-06-10T20:06:28.432Z,22.74
2018-06-10T20:09:04.996Z,22.74
2018-06-10T20:11:41.381Z,22.71
2018-06-10T20:14:17.620Z,22.89
2018-06-10T20:16:53.566Z,23.18
2018-06-10T20:19:30.975Z,23.49
2018-06-10T20:22:07.797Z,23.70
2018-06-10T20:24:44.462Z,23.85
2018-06-10T20:27:22.289Z,23.93
2018-06-10T20:29:58.295Z,23.94
2018-06-10T20:32:35.361Z,23.93
2018-06-10T20:35:11.654Z,23.95
2018-06-10T20:37:48.470Z,23.95
2018-06-10T20:40:24.914Z,23.94
2018-06-10T20:43:01.181Z,23.99
2018-06-10T20:45:37.577Z,23.99
2018-06-10T20:48:14.590Z,23.99
2018-06-10T20:50:50.283Z,23.96
2018-06-10T20:53:27.736Z,23.99
2018-06-10T20:56:04.732Z,23.94
2018-06-10T20:58:40.523Z,23.91
2018-06-10T21:01:17.595Z,23.79
2018-06-10T21:03:54.533Z,23.77
2018-06-10T21:06:30.408Z,23.80
2018-06-10T21:09:08.221Z,23.71
2018-06-10T21:11:44.989Z,23.53
2018-06-10T21:14:22.259Z,23.38
2018-06-10T21:16:58.455Z,23.18
2018-06-10T21:19:34.456Z,22.96
2018-06-10T21:22:11.019Z,22.82
2018-06-10T21:24:46.851Z,22.65
2018-06-10T21:27:23.916Z,22.53
2018-06-10T21:30:00.208Z,22.34
2018-06-10T21:32:36.038Z,22.28
2018-06-10T21:35:11.718Z,22.36
2018-06-10T21:37:47.735Z,22.26
2018-06-10T21:40:23.645Z,22.13
2018-06-10T21:42:59.091Z,21.96
2018-06-10T21:45:34.562Z,21.91
2018-06-10T21:48:10.355Z,21.83
2018-06-10T21:50:46.106Z,21.90
2018-06-10T21:53:21.584Z,21.93
2018-06-10T21:55:57.082Z,21.82
2018-06-10T21:58:32.470Z,21.63
2018-06-10T22:01:08.767Z,21.52
2018-06-10T22:03:44.379Z,21.41
2018-06-10T22:06:20.503Z,21.30
2018-06-10T22:08:56.139Z,21.30
2018-06-10T22:11:31.783Z,21.28
2018-06-10T22:14:07.791Z,21.37
2018-06-10T22:16:43.597Z,21.44
2018-06-10T22:19:19.466Z,21.27
2018-06-10T22:21:55.287Z,21.17
2018-06-10T22:24:30.858Z,21.20
2018-06-10T22:27:06.603Z,21.09
2018-06-10T22:29:42.386Z,21.05
2018-06-10T22:32:18.577Z,20.93
2018-06-10T22:34:54.206Z,20.78
2018-06-10T22:37:30.749Z,20.69
2018-06-10T22:40:06.239Z,20.66
2018-06-10T22:42:41.669Z,20.67
2018-06-10T22:45:17.741Z,20.67
2018-06-10T22:47:53.431Z,20.71
2018-06-10T22:50:29.503Z,20.67
2018-06-10T22:55:17.541Z,20.63
2018-06-10T22:57:53.214Z,20.60
2018-06-10T23:00:29.169Z,20.70
2018-06-10T23:03:04.964Z,20.60
2018-06-10T23:05:40.467Z,20.49
2018-06-10T23:08:17.801Z,20.47
2018-06-10T23:10:53.558Z,20.40
2018-06-10T23:13:29.455Z,20.27
2018-06-10T23:16:05.278Z,20.16
2018-06-10T23:18:40.527Z,20.12
2018-06-10T23:21:16.196Z,20.08
2018-06-10T23:23:51.696Z,20.05
2018-06-10T23:26:27.372Z,19.98
2018-06-10T23:29:03.124Z,20.01
2018-06-10T23:31:38.968Z,20.00
2018-06-10T23:34:14.507Z,19.94
2018-06-10T23:36:50.042Z,19.95
2018-06-10T23:39:25.837Z,19.83
2018-06-10T23:42:01.972Z,19.70
2018-06-10T23:44:37.612Z,19.71
2018-06-10T23:47:13.264Z,19.68
2018-06-10T23:49:48.970Z,19.66
2018-06-10T23:52:24.816Z,19.63
2018-06-10T23:55:00.472Z,19.68
2018-06-10T23:57:36.181Z,19.61
